sensor_id;sensor_type;location;lat;lon;timestamp;pressure;altitude;pressure_sealevel;temperature;humidity
80682;BME280;70045;40.200;44.582;2023-06-26T00:00:02;86043.38;;;19.36;44.92
80682;BME280;70045;40.200;44.582;2023-06-26T00:02:28;86041.00;;;19.38;44.34
80682;BME280;70045;40.200;44.582;2023-06-26T00:04:53;86041.84;;;19.30;44.40
80682;BME280;70045;40.200;44.582;2023-06-26T00:07:19;86051.38;;;19.27;46.02
80682;BME280;70045;40.200;44.582;2023-06-26T00:09:47;86031.06;;;19.07;45.62
80682;BME280;70045;40.200;44.582;2023-06-26T00:12:12;86048.34;;;19.14;46.44
80682;BME280;70045;40.200;44.582;2023-06-26T00:14:38;86044.91;;;19.08;44.80
80682;BME280;70045;40.200;44.582;2023-06-26T00:17:03;86051.13;;;19.05;44.75
80682;BME280;70045;40.200;44.582;2023-06-26T00:19:29;86054.47;;;19.05;44.75
80682;BME280;70045;40.200;44.582;2023-06-26T00:21:57;86051.38;;;19.07;45.92
80682;BME280;70045;40.200;44.582;2023-06-26T00:24:22;86053.66;;;18.99;45.89
80682;BME280;70045;40.200;44.582;2023-06-26T00:26:48;86053.84;;;18.95;45.76
80682;BME280;70045;40.200;44.582;2023-06-26T00:29:14;86057.66;;;18.94;44.92
80682;BME280;70045;40.200;44.582;2023-06-26T00:31:39;86050.44;;;18.89;46.28
80682;BME280;70045;40.200;44.582;2023-06-26T00:34:07;86054.78;;;18.77;46.59
80682;BME280;70045;40.200;44.582;2023-06-26T00:36:32;86055.75;;;18.80;45.73
80682;BME280;70045;40.200;44.582;2023-06-26T00:38:58;86053.72;;;18.84;45.78
80682;BME280;70045;40.200;44.582;2023-06-26T00:41:24;86049.88;;;18.85;45.33
80682;BME280;70045;40.200;44.582;2023-06-26T00:43:49;86047.53;;;18.87;45.04
80682;BME280;70045;40.200;44.582;2023-06-26T00:46:18;86050.44;;;18.89;45.85
80682;BME280;70045;40.200;44.582;2023-06-26T00:48:45;86044.97;;;18.93;45.22
80682;BME280;70045;40.200;44.582;2023-06-26T00:51:11;86050.75;;;18.97;45.25
80682;BME280;70045;40.200;44.582;2023-06-26T00:53:36;86045.31;;;19.00;44.95
80682;BME280;70045;40.200;44.582;2023-06-26T00:56:02;86045.50;;;18.97;44.56
80682;BME280;70045;40.200;44.582;2023-06-26T00:58:31;86046.75;;;19.02;45.19
80682;BME280;70045;40.200;44.582;2023-06-26T01:00:56;86040.06;;;19.00;44.79
80682;BME280;70045;40.200;44.582;2023-06-26T01:03:24;86047.69;;;18.98;45.03
80682;BME280;70045;40.200;44.582;2023-06-26T01:05:56;86043.34;;;18.95;45.77
80682;BME280;70045;40.200;44.582;2023-06-26T01:08:22;86043.63;;;18.97;44.86
80682;BME280;70045;40.200;44.582;2023-06-26T01:10:50;86038.81;;;18.96;45.32
80682;BME280;70045;40.200;44.582;2023-06-26T01:13:18;86040.44;;;18.93;45.35
80682;BME280;70045;40.200;44.582;2023-06-26T01:15:44;86039.53;;;18.96;45.18
80682;BME280;70045;40.200;44.582;2023-06-26T01:18:10;86038.88;;;19.02;44.71
80682;BME280;70045;40.200;44.582;2023-06-26T01:20:37;86041.00;;;18.97;45.25
80682;BME280;70045;40.200;44.582;2023-06-26T01:23:49;86037.78;;;19.08;45.24
80682;BME280;70045;40.200;44.582;2023-06-26T01:26:23;86036.53;;;19.04;44.79
80682;BME280;70045;40.200;44.582;2023-06-26T01:28:52;86035.16;;;19.08;45.04
80682;BME280;70045;40.200;44.582;2023-06-26T01:31:19;86031.31;;;19.09;44.36
80682;BME280;70045;40.200;44.582;2023-06-26T01:33:47;86037.03;;;19.08;45.33
80682;BME280;70045;40.200;44.582;2023-06-26T01:36:14;86031.31;;;19.09;44.36
80682;BME280;70045;40.200;44.582;2023-06-26T01:38:40;86026.81;;;19.10;44.39
80682;BME280;70045;40.200;44.582;2023-06-26T01:41:06;86021.94;;;19.03;44.57
80682;BME280;70045;40.200;44.582;2023-06-26T01:44:01;86030.63;;;19.09;45.04
80682;BME280;70045;40.200;44.582;2023-06-26T01:49:18;86031.06;;;19.07;45.08
80682;BME280;70045;40.200;44.582;2023-06-26T01:52:12;86033.50;;;19.11;45.01
80682;BME280;70045;40.200;44.582;2023-06-26T01:55:12;86028.78;;;19.15;44.83
80682;BME280;70045;40.200;44.582;2023-06-26T01:57:35;86026.41;;;19.17;44.63
80682;BME280;70045;40.200;44.582;2023-06-26T02:00:01;86017.28;;;19.12;44.25
80682;BME280;70045;40.200;44.582;2023-06-26T02:02:29;86025.22;;;19.18;44.46
80682;BME280;70045;40.200;44.582;2023-06-26T02:04:57;86022.13;;;19.19;44.75
80682;BME280;70045;40.200;44.582;2023-06-26T02:07:22;86031.69;;;19.17;45.14
80682;BME280;70045;40.200;44.582;2023-06-26T02:09:48;86030.47;;;19.18;44.68
80682;BME280;70045;40.200;44.582;2023-06-26T02:12:13;86028.59;;;19.18;44.63
80682;BME280;70045;40.200;44.582;2023-06-26T02:14:39;86030.38;;;19.27;44.74
80682;BME280;70045;40.200;44.582;2023-06-26T02:17:07;86029.97;;;19.34;44.42
80682;BME280;70045;40.200;44.582;2023-06-26T02:19:32;86028.75;;;19.35;44.38
80682;BME280;70045;40.200;44.582;2023-06-26T02:21:57;86026.41;;;19.37;44.74
80682;BME280;70045;40.200;44.582;2023-06-26T02:24:23;86032.44;;;19.44;44.58
80682;BME280;70045;40.200;44.582;2023-06-26T02:26:48;86029.88;;;19.49;44.58
80682;BME280;70045;40.200;44.582;2023-06-26T02:29:16;86028.50;;;19.54;44.95
80682;BME280;70045;40.200;44.582;2023-06-26T02:31:42;86032.19;;;19.62;44.32
80682;BME280;70045;40.200;44.582;2023-06-26T02:34:07;86025.06;;;19.68;44.03
80682;BME280;70045;40.200;44.582;2023-06-26T02:36:32;86029.97;;;19.75;43.94
80682;BME280;70045;40.200;44.582;2023-06-26T02:38:58;86023.81;;;19.84;43.78
80682;BME280;70045;40.200;44.582;2023-06-26T02:41:26;86022.41;;;19.89;43.99
80682;BME280;70045;40.200;44.582;2023-06-26T02:43:51;86022.94;;;19.93;43.85
80682;BME280;70045;40.200;44.582;2023-06-26T02:46:16;86024.91;;;19.98;43.38
80682;BME280;70045;40.200;44.582;2023-06-26T02:48:42;86017.28;;;20.00;43.24
80682;BME280;70045;40.200;44.582;2023-06-26T02:51:07;86018.28;;;20.08;43.14
80682;BME280;70045;40.200;44.582;2023-06-26T02:53:35;86020.78;;;20.18;43.25
80682;BME280;70045;40.200;44.582;2023-06-26T02:56:01;86012.66;;;20.21;43.09
80682;BME280;70045;40.200;44.582;2023-06-26T02:58:26;86014.19;;;20.34;42.92
80682;BME280;70045;40.200;44.582;2023-06-26T03:00:51;86013.53;;;20.44;43.20
80682;BME280;70045;40.200;44.582;2023-06-26T03:03:17;86012.19;;;20.55;42.63
80682;BME280;70045;40.200;44.582;2023-06-26T03:05:45;86012.78;;;20.64;42.74
80682;BME280;70045;40.200;44.582;2023-06-26T03:08:11;86015.94;;;20.74;42.39
80682;BME280;70045;40.200;44.582;2023-06-26T03:10:36;86015.28;;;20.85;42.36
80682;BME280;70045;40.200;44.582;2023-06-26T03:13:02;86014.63;;;20.96;42.19
80682;BME280;70045;40.200;44.582;2023-06-26T03:15:27;86015.63;;;21.04;41.95
80682;BME280;70045;40.200;44.582;2023-06-26T03:17:55;86014.22;;;21.14;42.03
80682;BME280;70045;40.200;44.582;2023-06-26T03:20:21;86020.03;;;21.24;41.75
80682;BME280;70045;40.200;44.582;2023-06-26T03:22:46;86014.31;;;21.31;41.67
80682;BME280;70045;40.200;44.582;2023-06-26T03:25:11;86014.31;;;21.37;41.72
80682;BME280;70045;40.200;44.582;2023-06-26T03:27:37;86021.31;;;21.45;42.14
80682;BME280;70045;40.200;44.582;2023-06-26T03:30:05;86020.16;;;21.47;42.32
80682;BME280;70045;40.200;44.582;2023-06-26T03:32:31;86020.66;;;21.51;42.44
80682;BME280;70045;40.200;44.582;2023-06-26T03:34:56;86028.09;;;21.52;42.96
80682;BME280;70045;40.200;44.582;2023-06-26T03:37:21;86026.91;;;21.53;42.95
80682;BME280;70045;40.200;44.582;2023-06-26T03:39:47;86019.47;;;21.57;43.01
80682;BME280;70045;40.200;44.582;2023-06-26T03:42:15;86021.66;;;21.65;42.60
80682;BME280;70045;40.200;44.582;2023-06-26T03:44:40;86014.50;;;21.71;41.74
80682;BME280;70045;40.200;44.582;2023-06-26T03:47:06;86026.22;;;21.64;44.16
80682;BME280;70045;40.200;44.582;2023-06-26T03:49:31;86021.41;;;21.57;43.48
80682;BME280;70045;40.200;44.582;2023-06-26T03:51:56;86020.41;;;21.49;43.10
80682;BME280;70045;40.200;44.582;2023-06-26T03:54:25;86020.44;;;21.60;42.84
80682;BME280;70045;40.200;44.582;2023-06-26T03:56:54;86018.06;;;21.68;42.28
80682;BME280;70045;40.200;44.582;2023-06-26T03:59:19;86025.75;;;21.71;42.41
80682;BME280;70045;40.200;44.582;2023-06-26T04:01:44;86021.69;;;21.76;41.50
80682;BME280;70045;40.200;44.582;2023-06-26T04:04:10;86015.25;;;21.83;40.92
80682;BME280;70045;40.200;44.582;2023-06-26T04:06:38;86007.34;;;21.88;41.45
80682;BME280;70045;40.200;44.582;2023-06-26T04:09:03;86015.03;;;21.97;40.83
80682;BME280;70045;40.200;44.582;2023-06-26T04:11:29;86014.78;;;22.01;41.08
80682;BME280;70045;40.200;44.582;2023-06-26T04:13:54;86013.59;;;22.02;41.10
80682;BME280;70045;40.200;44.582;2023-06-26T04:16:20;86009.28;;;22.05;40.60
80682;BME280;70045;40.200;44.582;2023-06-26T04:18:49;86021.03;;;22.15;40.47
80682;BME280;70045;40.200;44.582;2023-06-26T04:21:14;86016.75;;;22.12;40.05
80682;BME280;70045;40.200;44.582;2023-06-26T04:23:40;86019.38;;;22.12;40.55
80682;BME280;70045;40.200;44.582;2023-06-26T04:26:06;86024.66;;;22.23;39.97
80682;BME280;70045;40.200;44.582;2023-06-26T04:28:35;86023.50;;;22.30;39.93
80682;BME280;70045;40.200;44.582;2023-06-26T04:31:03;86024.72;;;22.34;39.58
80682;BME280;70045;40.200;44.582;2023-06-26T04:33:29;86030.00;;;22.46;39.69
80682;BME280;70045;40.200;44.582;2023-06-26T04:35:54;86030.47;;;22.55;39.29
80682;BME280;70045;40.200;44.582;2023-06-26T04:38:20;86022.31;;;22.59;38.98
80682;BME280;70045;40.200;44.582;2023-06-26T04:40:45;86024.47;;;22.61;38.97
80682;BME280;70045;40.200;44.582;2023-06-26T04:43:14;86016.31;;;22.70;38.41
80682;BME280;70045;40.200;44.582;2023-06-26T04:45:40;86028.31;;;22.82;38.66
80682;BME280;70045;40.200;44.582;2023-06-26T04:48:05;86015.81;;;22.83;38.39
80682;BME280;70045;40.200;44.582;2023-06-26T04:50:30;86016.53;;;22.89;38.47
80682;BME280;70045;40.200;44.582;2023-06-26T04:52:56;86012.44;;;22.99;38.30
80682;BME280;70045;40.200;44.582;2023-06-26T04:55:24;86004.50;;;22.88;38.24
80682;BME280;70045;40.200;44.582;2023-06-26T04:57:50;86002.59;;;22.83;38.54
80682;BME280;70045;40.200;44.582;2023-06-26T05:00:16;86015.78;;;23.00;38.44
80682;BME280;70045;40.200;44.582;2023-06-26T05:02:42;86012.69;;;23.12;38.10
80682;BME280;70045;40.200;44.582;2023-06-26T05:05:07;86002.31;;;23.20;37.70
80682;BME280;70045;40.200;44.582;2023-06-26T05:07:36;86002.31;;;23.20;37.96
80682;BME280;70045;40.200;44.582;2023-06-26T05:10:02;86009.97;;;23.29;38.19
80682;BME280;70045;40.200;44.582;2023-06-26T05:12:28;86003.25;;;23.34;37.64
80682;BME280;70045;40.200;44.582;2023-06-26T05:14:53;85994.56;;;23.39;37.50
80682;BME280;70045;40.200;44.582;2023-06-26T05:17:18;86003.47;;;23.42;37.75
80682;BME280;70045;40.200;44.582;2023-06-26T05:19:46;85987.81;;;23.38;37.51
80682;BME280;70045;40.200;44.582;2023-06-26T05:22:16;85997.13;;;23.62;37.31
80682;BME280;70045;40.200;44.582;2023-06-26T05:24:46;85991.06;;;23.73;36.57
80682;BME280;70045;40.200;44.582;2023-06-26T05:27:12;85984.53;;;23.85;36.61
80682;BME280;70045;40.200;44.582;2023-06-26T05:29:38;85987.84;;;23.97;36.70
80682;BME280;70045;40.200;44.582;2023-06-26T05:32:07;85992.59;;;24.04;35.98
80682;BME280;70045;40.200;44.582;2023-06-26T05:34:33;85983.72;;;24.01;35.70
80682;BME280;70045;40.200;44.582;2023-06-26T05:36:59;85982.75;;;24.04;36.06
80682;BME280;70045;40.200;44.582;2023-06-26T05:39:24;85984.66;;;24.10;35.73
80682;BME280;70045;40.200;44.582;2023-06-26T05:41:51;85977.81;;;24.20;35.88
80682;BME280;70045;40.200;44.582;2023-06-26T05:44:19;85982.56;;;24.33;35.78
80682;BME280;70045;40.200;44.582;2023-06-26T05:46:45;85975.97;;;24.45;35.36
80682;BME280;70045;40.200;44.582;2023-06-26T05:49:11;85987.25;;;24.57;35.43
80682;BME280;70045;40.200;44.582;2023-06-26T05:51:36;85980.97;;;24.60;34.46
80682;BME280;70045;40.200;44.582;2023-06-26T05:54:02;85978.25;;;24.66;34.94
80682;BME280;70045;40.200;44.582;2023-06-26T05:56:30;85981.56;;;24.72;34.28
80682;BME280;70045;40.200;44.582;2023-06-26T05:58:57;85974.66;;;24.63;34.60
80682;BME280;70045;40.200;44.582;2023-06-26T06:01:23;85969.75;;;24.73;34.62
80682;BME280;70045;40.200;44.582;2023-06-26T06:03:48;85971.09;;;24.85;34.05
80682;BME280;70045;40.200;44.582;2023-06-26T06:06:14;85970.50;;;24.98;34.31
80682;BME280;70045;40.200;44.582;2023-06-26T06:08:42;85968.22;;;25.08;33.72
80682;BME280;70045;40.200;44.582;2023-06-26T06:11:08;85972.34;;;25.09;34.01
80682;BME280;70045;40.200;44.582;2023-06-26T06:13:33;85967.41;;;25.18;34.28
80682;BME280;70045;40.200;44.582;2023-06-26T06:15:58;85967.81;;;25.28;34.03
80682;BME280;70045;40.200;44.582;2023-06-26T06:18:24;85963.72;;;25.27;33.57
80682;BME280;70045;40.200;44.582;2023-06-26T06:20:52;85965.59;;;25.32;33.40
80682;BME280;70045;40.200;44.582;2023-06-26T06:23:17;85970.63;;;25.36;33.28
80682;BME280;70045;40.200;44.582;2023-06-26T06:25:43;85954.41;;;25.40;33.75
80682;BME280;70045;40.200;44.582;2023-06-26T06:28:08;85965.63;;;25.51;33.46
80682;BME280;70045;40.200;44.582;2023-06-26T06:30:33;85963.78;;;25.65;33.29
80682;BME280;70045;40.200;44.582;2023-06-26T06:33:02;85956.47;;;25.71;32.58
80682;BME280;70045;40.200;44.582;2023-06-26T06:35:27;85955.47;;;25.74;33.09
80682;BME280;70045;40.200;44.582;2023-06-26T06:37:52;85952.47;;;25.84;33.16
80682;BME280;70045;40.200;44.582;2023-06-26T06:40:18;85950.16;;;25.93;32.97
80682;BME280;70045;40.200;44.582;2023-06-26T06:42:43;85950.63;;;25.98;31.88
80682;BME280;70045;40.200;44.582;2023-06-26T06:45:11;85951.78;;;26.02;32.16
80682;BME280;70045;40.200;44.582;2023-06-26T06:47:37;85946.72;;;26.18;32.47
80682;BME280;70045;40.200;44.582;2023-06-26T06:50:02;85942.47;;;26.28;32.43
80682;BME280;70045;40.200;44.582;2023-06-26T06:52:28;85949.56;;;26.39;32.28
80682;BME280;70045;40.200;44.582;2023-06-26T06:54:54;85944.38;;;26.46;31.08
80682;BME280;70045;40.200;44.582;2023-06-26T06:57:23;85941.22;;;26.48;31.54
80682;BME280;70045;40.200;44.582;2023-06-26T06:59:48;85940.91;;;26.52;31.66
80682;BME280;70045;40.200;44.582;2023-06-26T07:02:14;85930.69;;;26.56;31.04
80682;BME280;70045;40.200;44.582;2023-06-26T07:04:39;85947.09;;;26.60;31.26
80682;BME280;70045;40.200;44.582;2023-06-26T07:07:05;85942.28;;;26.58;31.63
80682;BME280;70045;40.200;44.582;2023-06-26T07:09:33;85945.38;;;26.62;31.35
80682;BME280;70045;40.200;44.582;2023-06-26T07:11:59;85928.41;;;26.65;31.65
80682;BME280;70045;40.200;44.582;2023-06-26T07:14:24;85930.78;;;26.82;31.25
80682;BME280;70045;40.200;44.582;2023-06-26T07:16:49;85917.69;;;26.84;30.93
80682;BME280;70045;40.200;44.582;2023-06-26T07:19:15;85932.03;;;26.95;31.21
80682;BME280;70045;40.200;44.582;2023-06-26T07:21:46;85925.50;;;27.09;30.20
80682;BME280;70045;40.200;44.582;2023-06-26T07:24:11;85920.81;;;27.15;29.62
80682;BME280;70045;40.200;44.582;2023-06-26T07:26:37;85900.13;;;26.95;31.14
80682;BME280;70045;40.200;44.582;2023-06-26T07:29:02;85920.59;;;27.27;30.70
80682;BME280;70045;40.200;44.582;2023-06-26T07:31:28;85912.44;;;27.38;30.38
80682;BME280;70045;40.200;44.582;2023-06-26T07:33:56;85913.66;;;27.50;29.65
80682;BME280;70045;40.200;44.582;2023-06-26T07:36:21;85916.31;;;27.37;29.75
80682;BME280;70045;40.200;44.582;2023-06-26T07:38:47;85908.75;;;27.28;29.59
80682;BME280;70045;40.200;44.582;2023-06-26T07:41:12;85910.75;;;27.21;29.26
80682;BME280;70045;40.200;44.582;2023-06-26T07:43:38;85912.81;;;27.29;29.53
80682;BME280;70045;40.200;44.582;2023-06-26T07:46:06;85872.78;;;27.21;29.40
80682;BME280;70045;40.200;44.582;2023-06-26T07:48:31;85907.31;;;27.53;29.47
80682;BME280;70045;40.200;44.582;2023-06-26T07:50:57;85907.69;;;27.57;29.75
80682;BME280;70045;40.200;44.582;2023-06-26T07:53:22;85901.53;;;27.63;29.35
80682;BME280;70045;40.200;44.582;2023-06-26T07:55:48;85896.81;;;27.69;29.13
80682;BME280;70045;40.200;44.582;2023-06-26T07:58:16;85895.47;;;27.75;28.17
80682;BME280;70045;40.200;44.582;2023-06-26T08:00:41;85878.59;;;27.73;29.45
80682;BME280;70045;40.200;44.582;2023-06-26T08:03:07;85879.00;;;27.64;29.31
80682;BME280;70045;40.200;44.582;2023-06-26T08:05:32;85887.16;;;27.79;29.11
80682;BME280;70045;40.200;44.582;2023-06-26T08:07:57;85885.22;;;27.79;28.83
80682;BME280;70045;40.200;44.582;2023-06-26T08:10:29;85878.16;;;27.82;28.82
80682;BME280;70045;40.200;44.582;2023-06-26T08:12:54;85884.28;;;27.90;28.57
80682;BME280;70045;40.200;44.582;2023-06-26T08:15:19;85884.69;;;27.94;28.96
80682;BME280;70045;40.200;44.582;2023-06-26T08:17:45;85860.72;;;27.81;28.91
80682;BME280;70045;40.200;44.582;2023-06-26T08:20:11;85879.78;;;27.98;28.47
80682;BME280;70045;40.200;44.582;2023-06-26T08:22:41;85873.00;;;27.97;27.92
80682;BME280;70045;40.200;44.582;2023-06-26T08:25:06;85879.47;;;28.02;28.50
80682;BME280;70045;40.200;44.582;2023-06-26T08:27:32;85872.03;;;28.08;28.28
80682;BME280;70045;40.200;44.582;2023-06-26T08:29:58;85869.50;;;28.03;28.21
80682;BME280;70045;40.200;44.582;2023-06-26T08:32:23;85867.31;;;28.14;28.63
80682;BME280;70045;40.200;44.582;2023-06-26T08:34:51;85860.63;;;28.21;28.31
80682;BME280;70045;40.200;44.582;2023-06-26T08:37:16;85865.13;;;28.26;28.16
80682;BME280;70045;40.200;44.582;2023-06-26T08:39:42;85861.06;;;28.33;27.89
80682;BME280;70045;40.200;44.582;2023-06-26T08:42:08;85860.28;;;28.46;27.70
80682;BME280;70045;40.200;44.582;2023-06-26T08:44:34;85861.09;;;28.54;28.21
80682;BME280;70045;40.200;44.582;2023-06-26T08:47:03;85857.69;;;28.74;27.31
80682;BME280;70045;40.200;44.582;2023-06-26T08:49:51;85855.63;;;28.88;27.37
80682;BME280;70045;40.200;44.582;2023-06-26T08:52:29;85850.63;;;28.85;27.41
80682;BME280;70045;40.200;44.582;2023-06-26T08:54:58;85851.78;;;28.97;26.44
80682;BME280;70045;40.200;44.582;2023-06-26T08:57:27;85846.50;;;29.05;26.76
80682;BME280;70045;40.200;44.582;2023-06-26T08:59:53;85844.78;;;28.86;26.83
80682;BME280;70045;40.200;44.582;2023-06-26T09:02:19;85839.03;;;29.03;25.73
80682;BME280;70045;40.200;44.582;2023-06-26T09:04:44;85838.69;;;29.07;27.04
80682;BME280;70045;40.200;44.582;2023-06-26T09:07:09;85832.06;;;29.29;26.72
80682;BME280;70045;40.200;44.582;2023-06-26T09:09:37;85823.22;;;29.42;26.33
80682;BME280;70045;40.200;44.582;2023-06-26T09:12:03;85830.03;;;29.51;26.40
80682;BME280;70045;40.200;44.582;2023-06-26T09:14:29;85828.63;;;29.57;26.13
80682;BME280;70045;40.200;44.582;2023-06-26T09:16:55;85840.78;;;29.74;25.58
80682;BME280;70045;40.200;44.582;2023-06-26T09:19:20;85818.78;;;29.89;25.35
80682;BME280;70045;40.200;44.582;2023-06-26T09:21:50;85823.84;;;30.69;24.71
80682;BME280;70045;40.200;44.582;2023-06-26T09:24:16;85821.47;;;31.43;23.67
80682;BME280;70045;40.200;44.582;2023-06-26T09:26:42;85809.66;;;31.94;23.58
80682;BME280;70045;40.200;44.582;2023-06-26T09:29:09;85818.69;;;32.72;23.01
80682;BME280;70045;40.200;44.582;2023-06-26T09:31:37;85823.88;;;33.20;21.01
80682;BME280;70045;40.200;44.582;2023-06-26T09:34:06;85817.56;;;33.43;20.53
80682;BME280;70045;40.200;44.582;2023-06-26T09:36:32;85821.94;;;34.01;20.98
80682;BME280;70045;40.200;44.582;2023-06-26T09:39:06;85814.66;;;34.65;20.25
80682;BME280;70045;40.200;44.582;2023-06-26T09:41:32;85797.78;;;34.92;19.99
80682;BME280;70045;40.200;44.582;2023-06-26T09:44:01;85804.97;;;35.36;18.83
80682;BME280;70045;40.200;44.582;2023-06-26T09:46:30;85809.81;;;35.87;19.14
80682;BME280;70045;40.200;44.582;2023-06-26T09:49:02;85810.69;;;35.99;18.49
80682;BME280;70045;40.200;44.582;2023-06-26T09:51:29;85812.00;;;36.59;18.98
80682;BME280;70045;40.200;44.582;2023-06-26T09:53:55;85810.81;;;36.81;17.36
80682;BME280;70045;40.200;44.582;2023-06-26T09:56:20;85792.91;;;36.76;16.95
80682;BME280;70045;40.200;44.582;2023-06-26T09:58:49;85799.69;;;37.18;17.13
80682;BME280;70045;40.200;44.582;2023-06-26T10:01:15;85796.50;;;37.31;18.00
80682;BME280;70045;40.200;44.582;2023-06-26T10:03:40;85795.34;;;37.35;16.44
80682;BME280;70045;40.200;44.582;2023-06-26T10:06:08;85806.91;;;37.25;17.50
80682;BME280;70045;40.200;44.582;2023-06-26T10:08:37;85807.25;;;37.84;17.55
80682;BME280;70045;40.200;44.582;2023-06-26T10:11:13;85805.34;;;38.30;17.04
80682;BME280;70045;40.200;44.582;2023-06-26T10:13:42;85788.94;;;38.16;15.85
80682;BME280;70045;40.200;44.582;2023-06-26T10:16:08;85793.06;;;38.17;15.88
80682;BME280;70045;40.200;44.582;2023-06-26T10:18:36;85791.97;;;38.56;16.29
80682;BME280;70045;40.200;44.582;2023-06-26T10:21:05;85792.88;;;38.49;15.59
80682;BME280;70045;40.200;44.582;2023-06-26T10:23:34;85796.72;;;38.67;15.12
80682;BME280;70045;40.200;44.582;2023-06-26T10:26:01;85787.09;;;38.88;16.72
80682;BME280;70045;40.200;44.582;2023-06-26T10:28:28;85783.19;;;38.91;15.57
80682;BME280;70045;40.200;44.582;2023-06-26T10:30:56;85768.94;;;38.78;15.56
80682;BME280;70045;40.200;44.582;2023-06-26T10:33:22;85789.47;;;39.05;16.04
80682;BME280;70045;40.200;44.582;2023-06-26T10:35:51;85780.69;;;39.42;14.54
80682;BME280;70045;40.200;44.582;2023-06-26T10:38:16;85779.09;;;39.13;14.02
80682;BME280;70045;40.200;44.582;2023-06-26T10:43:08;85767.53;;;39.25;14.60
80682;BME280;70045;40.200;44.582;2023-06-26T10:45:37;85765.81;;;39.67;14.12
80682;BME280;70045;40.200;44.582;2023-06-26T10:48:15;85765.69;;;39.65;14.15
80682;BME280;70045;40.200;44.582;2023-06-26T10:50:40;85761.91;;;39.70;14.91
80682;BME280;70045;40.200;44.582;2023-06-26T10:55:43;85758.53;;;39.58;14.13
80682;BME280;70045;40.200;44.582;2023-06-26T11:01:19;85751.56;;;40.04;14.32
80682;BME280;70045;40.200;44.582;2023-06-26T11:06:23;85749.66;;;41.25;13.16
80682;BME280;70045;40.200;44.582;2023-06-26T11:08:53;85744.56;;;41.61;12.87
80682;BME280;70045;40.200;44.582;2023-06-26T11:11:20;85740.97;;;41.43;13.49
80682;BME280;70045;40.200;44.582;2023-06-26T11:13:46;85740.75;;;41.52;13.13
80682;BME280;70045;40.200;44.582;2023-06-26T11:16:13;85738.94;;;41.57;12.91
80682;BME280;70045;40.200;44.582;2023-06-26T11:18:39;85729.44;;;41.72;13.04
80682;BME280;70045;40.200;44.582;2023-06-26T11:21:08;85724.97;;;41.92;11.70
80682;BME280;70045;40.200;44.582;2023-06-26T11:23:35;85733.47;;;42.44;11.25
80682;BME280;70045;40.200;44.582;2023-06-26T11:26:14;85724.63;;;42.60;11.14
80682;BME280;70045;40.200;44.582;2023-06-26T11:28:46;85715.50;;;42.69;11.28
80682;BME280;70045;40.200;44.582;2023-06-26T11:31:27;85708.28;;;42.92;10.74
80682;BME280;70045;40.200;44.582;2023-06-26T11:34:01;85719.72;;;42.56;11.46
80682;BME280;70045;40.200;44.582;2023-06-26T11:36:27;85703.84;;;42.37;11.86
80682;BME280;70045;40.200;44.582;2023-06-26T11:39:00;85700.81;;;43.08;11.37
80682;BME280;70045;40.200;44.582;2023-06-26T11:41:30;85700.22;;;42.32;11.17
80682;BME280;70045;40.200;44.582;2023-06-26T11:43:56;85698.44;;;42.84;11.42
80682;BME280;70045;40.200;44.582;2023-06-26T11:46:25;85695.59;;;43.30;11.48
80682;BME280;70045;40.200;44.582;2023-06-26T11:48:50;85693.84;;;43.71;11.24
80682;BME280;70045;40.200;44.582;2023-06-26T11:51:19;85678.28;;;42.92;10.47
80682;BME280;70045;40.200;44.582;2023-06-26T11:53:47;85674.22;;;42.29;10.26
80682;BME280;70045;40.200;44.582;2023-06-26T11:56:14;85666.56;;;42.41;10.99
80682;BME280;70045;40.200;44.582;2023-06-26T11:59:04;85673.53;;;43.24;9.79
80682;BME280;70045;40.200;44.582;2023-06-26T12:01:36;85671.09;;;43.48;9.89
80682;BME280;70045;40.200;44.582;2023-06-26T12:04:07;85662.44;;;43.88;9.23
80682;BME280;70045;40.200;44.582;2023-06-26T12:06:34;85665.22;;;43.72;9.32
80682;BME280;70045;40.200;44.582;2023-06-26T12:09:01;85644.06;;;43.20;9.84
80682;BME280;70045;40.200;44.582;2023-06-26T12:11:28;85647.66;;;43.09;9.27
80682;BME280;70045;40.200;44.582;2023-06-26T12:13:54;85656.50;;;43.07;9.40
80682;BME280;70045;40.200;44.582;2023-06-26T12:16:23;85649.03;;;43.76;9.04
80682;BME280;70045;40.200;44.582;2023-06-26T12:18:49;85647.47;;;44.25;8.52
80682;BME280;70045;40.200;44.582;2023-06-26T12:24:04;85645.38;;;43.53;8.70
80682;BME280;70045;40.200;44.582;2023-06-26T12:26:33;85644.16;;;43.56;7.93
80682;BME280;70045;40.200;44.582;2023-06-26T12:29:06;85643.66;;;44.14;8.70
80682;BME280;70045;40.200;44.582;2023-06-26T12:31:32;85614.47;;;44.56;8.92
80682;BME280;70045;40.200;44.582;2023-06-26T12:33:58;85630.50;;;45.04;8.75
80682;BME280;70045;40.200;44.582;2023-06-26T12:36:24;85632.91;;;45.36;8.31
80682;BME280;70045;40.200;44.582;2023-06-26T12:38:53;85630.34;;;45.00;7.34
80682;BME280;70045;40.200;44.582;2023-06-26T12:41:18;85625.97;;;44.93;8.25
80682;BME280;70045;40.200;44.582;2023-06-26T12:43:44;85624.56;;;45.32;8.01
80682;BME280;70045;40.200;44.582;2023-06-26T12:46:09;85623.41;;;44.97;8.34
80682;BME280;70045;40.200;44.582;2023-06-26T12:48:44;85617.84;;;44.55;7.66
80682;BME280;70045;40.200;44.582;2023-06-26T12:51:14;85621.56;;;44.46;7.59
80682;BME280;70045;40.200;44.582;2023-06-26T12:53:40;85620.63;;;44.19;8.79
80682;BME280;70045;40.200;44.582;2023-06-26T12:56:06;85621.25;;;43.81;8.05
80682;BME280;70045;40.200;44.582;2023-06-26T12:58:32;85614.56;;;44.41;8.30
80682;BME280;70045;40.200;44.582;2023-06-26T13:00:57;85609.56;;;44.93;8.20
80682;BME280;70045;40.200;44.582;2023-06-26T13:03:27;85604.38;;;44.81;7.28
80682;BME280;70045;40.200;44.582;2023-06-26T13:05:54;85612.38;;;44.37;7.81